createdAt,value
2023-04-06T00:00:58.489Z,6.83
2023-04-06T00:03:28.213Z,6.62
2023-04-06T00:05:57.625Z,6.59
2023-04-06T00:08:27.237Z,6.55
2023-04-06T00:10:56.060Z,6.53
2023-04-06T00:13:29.201Z,6.65
2023-04-06T00:15:58.047Z,6.74
2023-04-06T00:18:26.345Z,6.72
2023-04-06T00:20:55.091Z,6.73
2023-04-06T00:23:23.607Z,6.82
2023-04-06T00:25:52.012Z,6.82
2023-04-06T00:28:26.253Z,6.97
2023-04-06T00:30:56.446Z,7.25
2023-04-06T00:33:25.796Z,7.33
2023-04-06T00:35:54.209Z,7.37
2023-04-06T00:38:23.567Z,7.06
2023-04-06T00:40:52.211Z,7.06
2023-04-06T00:43:22.003Z,7.12
2023-04-06T00:45:50.578Z,7.03
2023-04-06T00:48:19.853Z,7.07
2023-04-06T00:50:48.288Z,7.04
2023-04-06T00:53:16.550Z,7.07
2023-04-06T00:55:45.482Z,7.11
2023-04-06T00:58:14.191Z,7.15
2023-04-06T01:00:53.657Z,7.23
2023-04-06T01:03:24.335Z,7.41
2023-04-06T01:05:56.837Z,7.52
2023-04-06T01:08:27.345Z,7.51
2023-04-06T01:11:03.047Z,7.59
2023-04-06T01:13:32.313Z,7.64
2023-04-06T01:16:03.925Z,7.61
2023-04-06T01:18:49.938Z,7.75
2023-04-06T01:21:21.408Z,7.81
2023-04-06T01:24:10.071Z,7.90
2023-04-06T01:27:07.468Z,7.92
2023-04-06T01:29:54.574Z,7.90
2023-04-06T01:32:39.227Z,7.87
2023-04-06T01:35:08.757Z,7.92
2023-04-06T01:37:39.787Z,8.05
2023-04-06T01:40:10.285Z,8.12
2023-04-06T01:42:45.769Z,8.11
2023-04-06T01:45:16.194Z,8.06
2023-04-06T01:47:44.987Z,8.01
2023-04-06T01:50:14.061Z,7.93
2023-04-06T01:52:46.317Z,7.97
2023-04-06T01:55:14.904Z,8.01
2023-04-06T01:58:03.791Z,8.09
2023-04-06T02:00:37.037Z,8.00
2023-04-06T02:03:55.009Z,7.89
2023-04-06T02:06:23.617Z,7.64
2023-04-06T02:08:54.218Z,7.59
2023-04-06T02:11:23.101Z,7.52
2023-04-06T02:13:57.873Z,7.51
2023-04-06T02:16:28.836Z,7.54
2023-04-06T02:18:57.268Z,7.55
2023-04-06T02:21:25.522Z,7.81
2023-04-06T02:23:56.863Z,7.97
2023-04-06T02:26:25.589Z,7.94
2023-04-06T02:28:56.362Z,8.02
2023-04-06T02:31:24.621Z,7.98
2023-04-06T02:33:53.226Z,7.87
2023-04-06T02:36:21.626Z,7.88
2023-04-06T02:38:49.983Z,7.88
2023-04-06T02:41:19.885Z,7.92
2023-04-06T02:43:48.742Z,7.94
2023-04-06T02:46:26.646Z,7.97
2023-04-06T02:48:55.123Z,7.96
2023-04-06T02:51:23.410Z,7.88
2023-04-06T02:53:53.845Z,7.91
2023-04-06T02:56:23.352Z,7.75
2023-04-06T02:58:52.607Z,7.38
2023-04-06T03:01:21.388Z,7.35
2023-04-06T03:03:54.843Z,7.29
2023-04-06T03:06:26.146Z,7.33
2023-04-06T03:08:58.173Z,7.36
2023-04-06T03:11:27.718Z,7.62
2023-04-06T03:13:56.440Z,7.81
2023-04-06T03:16:27.262Z,7.45
2023-04-06T03:18:55.956Z,7.46
2023-04-06T03:21:24.061Z,7.46
2023-04-06T03:23:55.034Z,7.42
2023-04-06T03:26:23.628Z,7.35
2023-04-06T03:28:53.226Z,7.23
2023-04-06T03:31:24.331Z,7.13
2023-04-06T03:34:02.014Z,7.12
2023-04-06T03:36:35.431Z,7.20
2023-04-06T03:39:06.746Z,7.15
2023-04-06T03:41:37.034Z,7.08
2023-04-06T03:44:34.012Z,7.07
2023-04-06T03:47:03.434Z,7.06
2023-04-06T03:49:32.192Z,7.01
2023-04-06T03:52:00.586Z,6.88
2023-04-06T03:54:28.921Z,6.89
2023-04-06T03:56:57.435Z,6.96
2023-04-06T03:59:32.808Z,6.92
2023-04-06T04:02:02.750Z,6.96
2023-04-06T04:04:31.942Z,6.92
2023-04-06T04:07:00.429Z,6.81
2023-04-06T04:09:29.873Z,6.82
2023-04-06T04:11:58.316Z,6.80
2023-04-06T04:14:26.794Z,6.99
2023-04-06T04:16:55.018Z,7.01
2023-04-06T04:19:23.814Z,7.00
2023-04-06T04:21:52.256Z,7.16
2023-04-06T04:24:24.074Z,7.18
2023-04-06T04:26:52.948Z,7.07
2023-04-06T04:29:22.394Z,6.93
2023-04-06T04:31:52.174Z,6.85
2023-04-06T04:34:26.143Z,6.88
2023-04-06T04:36:57.600Z,6.88
2023-04-06T04:39:34.626Z,6.86
2023-04-06T04:42:05.797Z,6.53
2023-04-06T04:44:35.459Z,6.44
2023-04-06T04:47:04.089Z,6.39
2023-04-06T04:49:41.046Z,6.39
2023-04-06T04:52:10.306Z,6.48
2023-04-06T04:54:52.784Z,6.64
2023-04-06T04:57:26.004Z,6.79
2023-04-06T04:59:57.810Z,6.90
2023-04-06T05:02:26.674Z,6.56
2023-04-06T05:05:13.000Z,6.56
2023-04-06T05:07:42.979Z,6.58
2023-04-06T05:10:15.501Z,6.69
2023-04-06T05:12:52.379Z,6.72
2023-04-06T05:15:21.190Z,6.69
2023-04-06T05:17:50.536Z,6.71
2023-04-06T05:20:21.752Z,6.66
2023-04-06T05:22:51.815Z,6.56
2023-04-06T05:25:20.331Z,6.56
2023-04-06T05:27:50.533Z,6.61
2023-04-06T05:30:29.681Z,6.67
2023-04-06T05:32:59.751Z,6.66
2023-04-06T05:35:31.015Z,6.67
2023-04-06T05:38:01.343Z,6.77
2023-04-06T05:40:29.737Z,6.81
2023-04-06T05:42:58.625Z,6.78
2023-04-06T05:45:27.344Z,6.81
2023-04-06T05:47:57.381Z,6.85
2023-04-06T05:50:29.521Z,6.90
2023-04-06T05:52:58.716Z,6.97
2023-04-06T05:55:30.918Z,6.88
2023-04-06T05:58:13.460Z,6.72
2023-04-06T06:00:47.052Z,6.73
2023-04-06T06:03:29.176Z,6.68
2023-04-06T06:06:05.675Z,6.61
2023-04-06T06:09:01.805Z,6.48
2023-04-06T06:11:31.717Z,6.44
2023-04-06T06:14:00.941Z,6.33
2023-04-06T06:16:29.784Z,6.24
2023-04-06T06:18:58.855Z,6.20
2023-04-06T06:21:27.720Z,6.29
2023-04-06T06:24:01.441Z,6.21
2023-04-06T06:26:31.082Z,6.13
2023-04-06T06:29:02.818Z,6.15
2023-04-06T06:31:32.772Z,6.17
2023-04-06T06:34:10.920Z,6.22
2023-04-06T06:36:40.676Z,6.31
2023-04-06T06:39:11.024Z,6.06
2023-04-06T06:41:41.349Z,5.97
2023-04-06T06:44:10.334Z,6.04
2023-04-06T06:46:42.756Z,6.18
2023-04-06T06:49:15.327Z,6.26
2023-04-06T06:51:43.702Z,6.19
2023-04-06T06:54:12.404Z,6.06
2023-04-06T06:56:41.313Z,6.12
2023-04-06T06:59:12.229Z,6.19
2023-04-06T07:01:47.727Z,5.99
2023-04-06T07:04:18.439Z,5.98
2023-04-06T07:06:48.358Z,5.91
2023-04-06T07:09:16.716Z,5.77
2023-04-06T07:11:45.141Z,5.85
2023-04-06T07:14:15.384Z,5.70
2023-04-06T07:16:49.160Z,5.68
2023-04-06T07:19:18.368Z,5.63
2023-04-06T07:21:47.517Z,5.75
2023-04-06T07:24:19.017Z,5.66
2023-04-06T07:26:52.287Z,5.60
2023-04-06T07:29:24.686Z,5.63
2023-04-06T07:31:53.423Z,5.60
2023-04-06T07:35:07.202Z,5.48
2023-04-06T07:37:46.020Z,5.61
2023-04-06T07:40:15.573Z,5.74
2023-04-06T07:42:46.908Z,5.64
2023-04-06T07:45:19.428Z,5.68
2023-04-06T07:47:51.170Z,5.38
2023-04-06T07:50:19.988Z,5.31
2023-04-06T07:52:51.671Z,5.30
2023-04-06T07:55:21.104Z,5.45
2023-04-06T07:57:52.068Z,5.49
2023-04-06T08:00:21.263Z,5.38
2023-04-06T08:03:05.677Z,5.30
2023-04-06T08:05:36.217Z,5.29
2023-04-06T08:08:08.874Z,5.39
2023-04-06T08:10:37.587Z,5.38
2023-04-06T08:13:06.178Z,5.51
2023-04-06T08:15:42.673Z,5.48
2023-04-06T08:18:19.373Z,5.51
2023-04-06T08:20:51.197Z,5.55
2023-04-06T08:23:21.284Z,5.85
2023-04-06T08:25:49.822Z,5.94
2023-04-06T08:28:18.524Z,5.88
2023-04-06T08:30:48.114Z,5.85
2023-04-06T08:33:24.443Z,5.83
2023-04-06T08:36:10.705Z,5.84
2023-04-06T08:38:40.261Z,5.84
2023-04-06T08:43:39.452Z,5.75
2023-04-06T08:46:18.971Z,6.05
2023-04-06T08:48:54.588Z,6.28
2023-04-06T08:51:25.167Z,6.18
2023-04-06T08:53:56.987Z,6.30
2023-04-06T08:56:26.652Z,6.20
2023-04-06T08:58:56.753Z,6.31
2023-04-06T09:01:39.825Z,6.30
2023-04-06T09:04:12.975Z,6.39
2023-04-06T09:06:43.518Z,6.55
2023-04-06T09:09:24.935Z,6.53
2023-04-06T09:12:09.681Z,6.40
2023-04-06T09:14:42.295Z,6.39
2023-04-06T09:17:27.486Z,6.48
2023-04-06T09:19:58.495Z,6.64
2023-04-06T09:22:39.304Z,6.04
2023-04-06T09:25:12.258Z,6.08
2023-04-06T09:27:40.703Z,6.15
2023-04-06T09:30:14.909Z,6.18
2023-04-06T09:32:57.694Z,6.22
2023-04-06T09:35:29.002Z,6.40
2023-04-06T09:37:57.872Z,6.58
2023-04-06T09:40:30.466Z,6.75
2023-04-06T09:43:03.593Z,6.92
2023-04-06T09:45:34.675Z,7.02
2023-04-06T09:48:03.483Z,7.04
2023-04-06T09:50:34.620Z,7.11
2023-04-06T09:53:03.935Z,7.12
2023-04-06T09:55:40.460Z,7.22
2023-04-06T09:58:29.417Z,7.40
2023-04-06T10:01:47.485Z,7.27
2023-04-06T10:04:43.207Z,7.18
2023-04-06T10:07:17.260Z,7.30
2023-04-06T10:09:47.155Z,7.32
2023-04-06T10:12:19.027Z,7.41
2023-04-06T10:14:47.823Z,7.32
2023-04-06T10:17:16.533Z,7.53
2023-04-06T10:19:56.748Z,7.52
2023-04-06T10:22:44.032Z,7.42
2023-04-06T10:25:12.460Z,7.32
2023-04-06T10:27:40.968Z,7.20
2023-04-06T10:30:15.984Z,7.15
2023-04-06T10:33:16.263Z,6.96
2023-04-06T10:35:45.194Z,7.00
2023-04-06T10:38:17.465Z,7.07
2023-04-06T10:40:47.963Z,7.09
2023-04-06T10:43:23.539Z,7.18
2023-04-06T10:46:03.732Z,7.07
2023-04-06T10:48:42.773Z,6.99
2023-04-06T10:51:12.535Z,7.19
2023-04-06T10:53:43.015Z,7.16
2023-04-06T10:56:17.863Z,7.18
2023-04-06T10:58:57.431Z,7.35
2023-04-06T11:01:28.865Z,7.45
2023-04-06T11:04:02.636Z,7.42
2023-04-06T11:06:35.070Z,7.31
2023-04-06T11:09:04.823Z,7.33
2023-04-06T11:11:33.607Z,7.34
2023-04-06T11:14:04.793Z,7.40
2023-04-06T11:16:34.465Z,7.46
2023-04-06T11:19:16.040Z,7.38
2023-04-06T11:21:53.116Z,7.29
2023-04-06T11:24:29.538Z,7.43
2023-04-06T11:27:02.548Z,7.69
2023-04-06T11:29:42.978Z,7.78
2023-04-06T11:32:11.664Z,7.78
2023-04-06T11:34:47.121Z,7.74
2023-04-06T11:37:17.270Z,7.79
2023-04-06T11:39:53.396Z,7.73
2023-04-06T11:42:29.605Z,7.64
2023-04-06T11:45:02.112Z,7.63
2023-04-06T11:47:37.595Z,7.68
2023-04-06T11:50:10.962Z,7.69
2023-04-06T11:52:42.846Z,7.70
2023-04-06T11:55:19.225Z,7.70
2023-04-06T11:57:48.049Z,7.70
2023-04-06T12:00:17.523Z,7.70
2023-04-06T12:02:47.449Z,7.83
2023-04-06T12:05:16.430Z,7.96
2023-04-06T12:07:47.100Z,8.15
2023-04-06T12:10:15.530Z,8.23
2023-04-06T12:12:46.138Z,8.24
2023-04-06T12:15:16.830Z,8.39
2023-04-06T12:17:46.479Z,8.42
2023-04-06T12:20:26.061Z,8.29
2023-04-06T12:23:02.519Z,8.27
2023-04-06T12:25:32.354Z,8.29
2023-04-06T12:28:02.332Z,8.23
2023-04-06T12:30:36.148Z,8.18
2023-04-06T12:33:05.629Z,8.26
2023-04-06T12:35:35.905Z,8.24
2023-04-06T12:38:11.760Z,8.31
2023-04-06T12:40:46.578Z,8.43
2023-04-06T12:43:18.366Z,8.50
2023-04-06T12:45:55.083Z,8.64
2023-04-06T12:48:23.845Z,8.77
2023-04-06T12:51:04.015Z,8.82
2023-04-06T12:53:34.323Z,8.81
2023-04-06T12:56:22.354Z,8.87
2023-04-06T12:58:54.123Z,8.83
2023-04-06T13:01:22.864Z,8.93
2023-04-06T13:03:52.742Z,8.86
2023-04-06T13:06:21.974Z,8.73
2023-04-06T13:08:52.003Z,8.62
2023-04-06T13:11:28.780Z,8.65
2023-04-06T13:13:58.044Z,8.76
2023-04-06T13:16:44.772Z,8.69
2023-04-06T13:19:14.584Z,8.73
2023-04-06T13:21:46.671Z,8.77
2023-04-06T13:24:16.595Z,8.89
2023-04-06T13:26:56.653Z,9.03
2023-04-06T13:29:27.248Z,9.03
2023-04-06T13:31:55.571Z,9.04
2023-04-06T13:34:26.111Z,9.03
2023-04-06T13:36:57.643Z,8.95
2023-04-06T13:39:29.715Z,8.92
2023-04-06T13:42:03.928Z,8.93
2023-04-06T13:44:35.881Z,8.90
2023-04-06T13:47:04.651Z,8.79
2023-04-06T13:49:55.176Z,8.64
2023-04-06T13:52:43.526Z,8.56
2023-04-06T13:55:37.128Z,8.45
2023-04-06T13:58:12.304Z,8.41
2023-04-06T14:01:03.175Z,8.59
2023-04-06T14:04:11.077Z,8.51
2023-04-06T14:06:43.089Z,8.51
2023-04-06T14:09:23.528Z,8.48
2023-04-06T14:11:55.946Z,8.47
2023-04-06T14:14:29.133Z,8.37
2023-04-06T14:16:59.623Z,8.40
2023-04-06T14:19:28.706Z,8.46
2023-04-06T14:22:03.925Z,8.43
2023-04-06T14:24:32.510Z,8.48
2023-04-06T14:27:02.375Z,8.52
2023-04-06T14:29:31.608Z,8.56
2023-04-06T14:32:03.134Z,8.56
2023-04-06T14:34:37.108Z,8.65
2023-04-06T14:37:08.367Z,8.68
2023-04-06T14:39:41.801Z,8.68
2023-04-06T14:42:14.265Z,8.67
2023-04-06T14:44:45.940Z,8.60
2023-04-06T14:47:21.794Z,8.55
2023-04-06T14:49:54.884Z,8.49
2023-04-06T14:52:25.856Z,8.37
2023-04-06T14:54:54.226Z,8.30
2023-04-06T14:57:28.850Z,8.22
2023-04-06T14:59:57.451Z,8.14
2023-04-06T15:02:27.904Z,8.12
2023-04-06T15:04:59.844Z,8.11
2023-04-06T15:07:28.255Z,7.99
2023-04-06T15:10:05.474Z,8.04
2023-04-06T15:12:38.869Z,7.97
2023-04-06T15:15:08.720Z,7.96
2023-04-06T15:17:37.137Z,7.91
2023-04-06T15:20:10.157Z,7.85
2023-04-06T15:22:41.132Z,7.84
2023-04-06T15:25:09.667Z,7.84
2023-04-06T15:27:39.593Z,7.89
2023-04-06T15:30:08.189Z,7.76
2023-04-06T15:32:39.355Z,7.86
2023-04-06T15:35:12.135Z,7.84
2023-04-06T15:37:41.068Z,7.75
2023-04-06T15:40:15.591Z,7.77
2023-04-06T15:42:45.736Z,7.73
2023-04-06T15:45:14.444Z,7.71
2023-04-06T15:47:44.989Z,7.57
2023-04-06T15:50:14.328Z,7.49
2023-04-06T15:52:44.677Z,7.51
2023-04-06T15:55:13.146Z,7.49
2023-04-06T15:57:42.689Z,7.39
2023-04-06T16:00:11.613Z,7.41
2023-04-06T16:02:41.689Z,7.42
2023-04-06T16:05:10.347Z,7.44
2023-04-06T16:07:39.036Z,7.44
2023-04-06T16:10:08.215Z,7.48
2023-04-06T16:12:36.511Z,7.50
2023-04-06T16:15:06.425Z,7.42
2023-04-06T16:17:35.632Z,7.41
2023-04-06T16:20:04.092Z,7.48
2023-04-06T16:22:33.918Z,7.41
2023-04-06T16:25:03.091Z,7.48
2023-04-06T16:27:36.248Z,7.50
2023-04-06T16:30:44.735Z,7.49
2023-04-06T16:33:17.232Z,7.48
2023-04-06T16:35:46.986Z,7.44
2023-04-06T16:38:16.226Z,7.41
2023-04-06T16:40:45.246Z,7.53
2023-04-06T16:43:14.193Z,7.53
2023-04-06T16:45:42.661Z,7.53
2023-04-06T16:48:16.990Z,7.52
2023-04-06T16:50:47.631Z,7.55
2023-04-06T16:53:17.773Z,7.53
2023-04-06T16:55:46.529Z,7.53
2023-04-06T16:58:16.477Z,7.65
2023-04-06T17:00:45.699Z,7.60
2023-04-06T17:03:15.366Z,7.59
2023-04-06T17:05:45.451Z,7.50
2023-04-06T17:08:17.220Z,7.52
2023-04-06T17:10:59.167Z,7.57
2023-04-06T17:13:34.779Z,7.47
2023-04-06T17:16:03.773Z,7.46
2023-04-06T17:18:32.148Z,7.40
2023-04-06T17:21:07.913Z,7.39
2023-04-06T17:23:36.891Z,7.35
2023-04-06T17:26:08.771Z,7.37
2023-04-06T17:28:38.013Z,7.42
2023-04-06T17:31:11.111Z,7.42
2023-04-06T17:33:41.129Z,7.40
2023-04-06T17:36:15.594Z,7.31
2023-04-06T17:38:46.816Z,7.43
2023-04-06T17:41:16.246Z,7.49
2023-04-06T17:43:44.632Z,7.50
2023-04-06T17:46:13.240Z,7.53
2023-04-06T17:48:42.011Z,7.61
2023-04-06T17:51:19.138Z,7.51
2023-04-06T17:53:47.479Z,7.56
2023-04-06T17:56:15.649Z,7.63
2023-04-06T17:58:45.853Z,7.67
2023-04-06T18:01:20.465Z,7.67
2023-04-06T18:03:49.082Z,7.74
2023-04-06T18:06:17.888Z,7.78
2023-04-06T18:08:46.235Z,7.66
2023-04-06T18:11:20.022Z,7.62
2023-04-06T18:13:48.758Z,7.57
2023-04-06T18:16:21.527Z,7.61
2023-04-06T18:18:55.606Z,7.46
2023-04-06T18:21:24.932Z,7.56
2023-04-06T18:23:55.716Z,7.51
2023-04-06T18:26:27.666Z,7.56
2023-04-06T18:28:56.226Z,7.63
2023-04-06T18:31:24.495Z,7.72
2023-04-06T18:33:54.959Z,7.74
2023-04-06T18:36:24.291Z,7.63
2023-04-06T18:38:52.775Z,7.65
2023-04-06T18:41:22.794Z,7.66
2023-04-06T18:43:54.493Z,7.61
2023-04-06T18:46:23.047Z,7.38
2023-04-06T18:48:52.520Z,7.39
2023-04-06T18:51:28.296Z,7.37
2023-04-06T18:53:57.986Z,7.36
2023-04-06T18:56:26.417Z,7.28
2023-04-06T18:58:54.964Z,7.23
2023-04-06T19:01:33.375Z,7.28
2023-04-06T19:04:01.894Z,7.38
2023-04-06T19:06:33.915Z,7.37
2023-04-06T19:09:04.998Z,7.29
2023-04-06T19:11:33.540Z,7.17
2023-04-06T19:14:01.651Z,7.23
2023-04-06T19:16:32.332Z,7.20
2023-04-06T19:19:00.872Z,7.21
2023-04-06T19:21:29.413Z,7.19
2023-04-06T19:23:58.669Z,7.19
2023-04-06T19:26:29.591Z,7.26
2023-04-06T19:28:59.190Z,7.25
2023-04-06T19:31:28.110Z,7.21
2023-04-06T19:33:56.447Z,7.22
2023-04-06T19:36:26.432Z,7.32
2023-04-06T19:38:55.544Z,7.21
2023-04-06T19:41:24.421Z,7.20
2023-04-06T19:43:53.137Z,7.23
2023-04-06T19:46:21.698Z,7.27
2023-04-06T19:48:49.915Z,7.19
2023-04-06T19:51:18.173Z,7.01
2023-04-06T19:53:47.077Z,7.06
2023-04-06T19:56:16.385Z,6.99
2023-04-06T19:58:45.153Z,6.97
2023-04-06T20:01:13.429Z,7.07
2023-04-06T20:03:42.081Z,7.01
2023-04-06T20:06:11.165Z,6.98
2023-04-06T20:08:39.333Z,7.07
2023-04-06T20:11:08.693Z,7.06
2023-04-06T20:13:37.720Z,7.03
2023-04-06T20:16:06.176Z,7.00
2023-04-06T20:18:47.811Z,7.02
2023-04-06T20:21:16.082Z,7.06
2023-04-06T20:23:44.192Z,6.97
2023-04-06T20:26:12.290Z,7.02
2023-04-06T20:28:40.744Z,7.06
2023-04-06T20:31:14.120Z,7.36
2023-04-06T20:33:45.909Z,7.41
2023-04-06T20:36:14.439Z,7.33
2023-04-06T20:38:48.001Z,7.31
2023-04-06T20:41:16.530Z,7.36
2023-04-06T20:43:45.362Z,7.28
2023-04-06T20:46:19.606Z,7.26
2023-04-06T20:48:47.804Z,7.25
2023-04-06T20:51:23.231Z,7.26
2023-04-06T20:53:53.083Z,7.35
2023-04-06T20:56:26.986Z,7.39
2023-04-06T20:58:57.035Z,7.50
2023-04-06T21:01:25.694Z,7.55
2023-04-06T21:03:54.913Z,7.52
2023-04-06T21:06:30.095Z,7.49
2023-04-06T21:08:59.456Z,7.47
2023-04-06T21:11:27.646Z,7.38
2023-04-06T21:13:56.791Z,7.43
2023-04-06T21:16:26.103Z,7.47
2023-04-06T21:18:54.770Z,7.48
2023-04-06T21:21:23.024Z,7.57
2023-04-06T21:23:52.997Z,7.70
2023-04-06T21:26:21.258Z,7.66
2023-04-06T21:28:49.548Z,7.59
2023-04-06T21:31:20.130Z,7.59
2023-04-06T21:33:55.771Z,7.67
2023-04-06T21:36:24.016Z,7.77
2023-04-06T21:38:52.991Z,7.86
2023-04-06T21:41:22.169Z,7.72
2023-04-06T21:43:50.403Z,7.80
2023-04-06T21:46:18.608Z,7.91
2023-04-06T21:48:47.977Z,7.98
2023-04-06T21:51:17.740Z,8.06
2023-04-06T21:53:45.933Z,8.14
2023-04-06T21:56:14.240Z,8.09
2023-04-06T21:58:48.103Z,8.16
2023-04-06T22:01:16.452Z,8.08
2023-04-06T22:03:45.442Z,7.83
2023-04-06T22:06:14.107Z,7.92
2023-04-06T22:08:47.747Z,7.71
2023-04-06T22:11:21.342Z,7.72
2023-04-06T22:13:49.943Z,7.72
2023-04-06T22:16:18.839Z,7.62
2023-04-06T22:18:55.345Z,7.59
2023-04-06T22:21:23.508Z,7.56
2023-04-06T22:23:51.591Z,7.51
2023-04-06T22:26:21.088Z,7.52
2023-04-06T22:28:53.101Z,7.54
2023-04-06T22:31:21.257Z,7.54
2023-04-06T22:33:49.681Z,7.56
2023-04-06T22:36:18.006Z,7.70
2023-04-06T22:38:49.457Z,7.68
2023-04-06T22:41:17.694Z,7.62
2023-04-06T22:43:45.763Z,7.65
2023-04-06T22:46:14.069Z,7.68
2023-04-06T22:48:42.342Z,7.80
2023-04-06T22:51:10.542Z,7.82
2023-04-06T22:53:38.720Z,7.87
2023-04-06T22:56:07.719Z,7.89
2023-04-06T22:58:35.907Z,7.85
2023-04-06T23:01:08.266Z,7.74
2023-04-06T23:03:38.764Z,7.73
2023-04-06T23:06:07.215Z,7.74
2023-04-06T23:08:35.337Z,7.86
2023-04-06T23:11:04.322Z,7.86
2023-04-06T23:13:34.331Z,7.87
2023-04-06T23:16:02.423Z,7.82
2023-04-06T23:18:32.679Z,7.84
2023-04-06T23:21:01.075Z,7.84
2023-04-06T23:23:29.257Z,7.83
2023-04-06T23:25:57.362Z,7.95
2023-04-06T23:28:25.496Z,7.94
2023-04-06T23:30:53.755Z,7.69
2023-04-06T23:33:23.004Z,7.75
2023-04-06T23:35:52.208Z,7.76
2023-04-06T23:38:20.447Z,7.69
2023-04-06T23:40:48.575Z,7.67
2023-04-06T23:43:17.526Z,7.64
2023-04-06T23:45:45.743Z,7.69
2023-04-06T23:48:14.762Z,7.69
2023-04-06T23:50:43.225Z,7.65
2023-04-06T23:53:17.676Z,7.58
2023-04-06T23:55:45.807Z,7.46
2023-04-06T23:58:14.006Z,7.42
